createdAt,value
2023-04-24T00:01:32.828Z,98873.47
2023-04-24T00:04:03.071Z,98867.16
2023-04-24T00:06:35.412Z,98861.50
2023-04-24T00:09:05.111Z,98861.06
2023-04-24T00:11:33.891Z,98863.63
2023-04-24T00:14:03.994Z,98859.03
2023-04-24T00:16:33.580Z,98853.63
2023-04-24T00:19:02.414Z,98851.44
2023-04-24T00:21:31.264Z,98850.56
2023-04-24T00:24:01.090Z,98849.69
2023-04-24T00:26:29.845Z,98845.41
2023-04-24T00:28:58.576Z,98839.28
2023-04-24T00:31:28.089Z,98842.09
2023-04-24T00:33:57.567Z,98840.66
2023-04-24T00:36:28.275Z,98839.41
2023-04-24T00:38:58.294Z,98833.25
2023-04-24T00:41:28.029Z,98835.19
2023-04-24T00:43:56.761Z,98831.31
2023-04-24T00:46:26.405Z,98836.25
2023-04-24T00:48:56.091Z,98830.78
2023-04-24T00:51:25.724Z,98835.19
2023-04-24T00:53:54.454Z,98842.91
2023-04-24T00:56:22.365Z,98833.25
2023-04-24T00:58:52.067Z,98837.53
2023-04-24T01:01:23.644Z,98837.22
2023-04-24T01:03:53.867Z,98842.88
2023-04-24T01:06:22.813Z,98836.38
2023-04-24T01:08:52.418Z,98836.03
2023-04-24T01:11:22.475Z,98838.28
2023-04-24T01:13:51.229Z,98837.41
2023-04-24T01:16:22.174Z,98836.84
2023-04-24T01:18:52.483Z,98839.53
2023-04-24T01:21:23.208Z,98840.75
2023-04-24T01:23:52.935Z,98835.13
2023-04-24T01:26:23.263Z,98831.03
2023-04-24T01:28:52.241Z,98821.66
2023-04-24T01:31:22.314Z,98820.97
2023-04-24T01:33:53.788Z,98823.28
2023-04-24T01:36:24.707Z,98812.16
2023-04-24T01:38:55.464Z,98813.50
2023-04-24T01:41:26.365Z,98814.09
2023-04-24T01:43:55.960Z,98812.03
2023-04-24T01:46:25.178Z,98816.13
2023-04-24T01:48:55.956Z,98805.28
2023-04-24T01:51:24.667Z,98810.34
2023-04-24T01:53:54.594Z,98804.09
2023-04-24T01:56:24.677Z,98804.28
2023-04-24T01:58:56.421Z,98806.28
2023-04-24T02:01:27.932Z,98808.94
2023-04-24T02:03:57.506Z,98804.72
2023-04-24T02:06:26.317Z,98804.59
2023-04-24T02:08:55.879Z,98800.03
2023-04-24T02:11:24.690Z,98790.22
2023-04-24T02:13:54.496Z,98797.53
2023-04-24T02:16:24.129Z,98804.44
2023-04-24T02:18:53.772Z,98801.75
2023-04-24T02:21:22.533Z,98796.09
2023-04-24T02:23:51.535Z,98786.81
2023-04-24T02:26:20.370Z,98797.69
2023-04-24T02:28:50.100Z,98780.81
2023-04-24T02:31:19.782Z,98779.44
2023-04-24T02:33:48.659Z,98778.66
2023-04-24T02:36:17.480Z,98774.25
2023-04-24T02:38:45.297Z,98765.16
2023-04-24T02:41:14.986Z,98753.44
2023-04-24T02:43:43.639Z,98756.13
2023-04-24T02:46:12.649Z,98750.34
2023-04-24T02:48:42.359Z,98737.06
2023-04-24T02:51:11.129Z,98722.28
2023-04-24T02:53:40.081Z,98718.88
2023-04-24T02:56:08.893Z,98733.09
2023-04-24T02:58:37.987Z,98736.44
2023-04-24T03:01:07.274Z,98722.47
2023-04-24T03:03:36.209Z,98714.72
2023-04-24T03:06:06.990Z,98715.78
2023-04-24T03:08:36.689Z,98733.78
2023-04-24T03:11:05.805Z,98727.50
2023-04-24T03:13:34.550Z,98715.31
2023-04-24T03:16:04.345Z,98716.13
2023-04-24T03:18:33.941Z,98715.38
2023-04-24T03:21:02.953Z,98714.63
2023-04-24T03:23:31.994Z,98700.88
2023-04-24T03:26:00.834Z,98701.94
2023-04-24T03:28:30.435Z,98718.22
2023-04-24T03:31:00.050Z,98715.09
2023-04-24T03:33:28.847Z,98719.03
2023-04-24T03:35:57.669Z,98725.25
2023-04-24T03:38:26.533Z,98721.72
2023-04-24T03:40:56.117Z,98725.00
2023-04-24T03:43:25.786Z,98727.84
2023-04-24T03:45:55.545Z,98748.59
2023-04-24T03:48:24.362Z,98741.53
2023-04-24T03:50:53.185Z,98745.59
2023-04-24T03:53:22.925Z,98740.03
2023-04-24T03:55:51.736Z,98750.88
2023-04-24T03:58:21.328Z,98749.34
2023-04-24T04:00:51.516Z,98746.66
2023-04-24T04:03:21.332Z,98737.78
2023-04-24T04:05:51.151Z,98731.06
2023-04-24T04:08:19.925Z,98737.25
2023-04-24T04:10:48.738Z,98740.19
2023-04-24T04:13:17.500Z,98742.84
2023-04-24T04:15:47.385Z,98748.97
2023-04-24T04:18:16.915Z,98757.19
2023-04-24T04:20:45.829Z,98748.84
2023-04-24T04:23:14.669Z,98748.38
2023-04-24T04:25:43.443Z,98748.81
2023-04-24T04:28:12.261Z,98743.03
2023-04-24T04:30:42.545Z,98736.38
2023-04-24T04:33:11.883Z,98741.31
2023-04-24T04:35:42.332Z,98742.06
2023-04-24T04:38:12.099Z,98738.16
2023-04-24T04:40:41.932Z,98742.78
2023-04-24T04:43:12.295Z,98745.31
2023-04-24T04:45:44.019Z,98744.50
2023-04-24T04:48:14.987Z,98736.75
2023-04-24T04:50:43.780Z,98742.31
2023-04-24T04:53:12.609Z,98742.00
2023-04-24T04:55:42.532Z,98736.75
2023-04-24T04:58:11.488Z,98749.59
2023-04-24T05:00:40.361Z,98754.03
2023-04-24T05:03:20.040Z,98752.84
2023-04-24T05:05:49.800Z,98753.84
2023-04-24T05:08:26.284Z,98743.28
2023-04-24T05:10:57.150Z,98738.75
2023-04-24T05:13:36.231Z,98726.28
2023-04-24T05:16:09.443Z,98725.59
2023-04-24T05:18:38.976Z,98735.69
2023-04-24T05:21:08.586Z,98732.78
2023-04-24T05:23:38.203Z,98734.00
2023-04-24T05:26:07.804Z,98734.81
2023-04-24T05:28:38.123Z,98733.25
2023-04-24T05:31:07.809Z,98731.97
2023-04-24T05:33:36.616Z,98736.28
2023-04-24T05:36:06.877Z,98728.78
2023-04-24T05:38:35.632Z,98730.59
2023-04-24T05:41:05.182Z,98720.81
2023-04-24T05:43:34.731Z,98712.66
2023-04-24T05:46:03.553Z,98725.56
2023-04-24T05:48:32.888Z,98725.38
2023-04-24T05:51:04.644Z,98720.13
2023-04-24T05:53:34.193Z,98708.94
2023-04-24T05:56:03.100Z,98706.22
2023-04-24T05:58:31.843Z,98700.38
2023-04-24T06:01:02.921Z,98702.09
2023-04-24T06:03:34.128Z,98709.31
2023-04-24T06:06:02.297Z,98704.56
2023-04-24T06:08:31.845Z,98696.53
2023-04-24T06:11:02.688Z,98692.16
2023-04-24T06:13:32.769Z,98694.22
2023-04-24T06:16:01.632Z,98690.25
2023-04-24T06:18:30.454Z,98703.94
2023-04-24T06:20:59.955Z,98706.47
2023-04-24T06:23:28.634Z,98701.34
2023-04-24T06:25:56.547Z,98706.78
2023-04-24T06:28:26.364Z,98712.00
2023-04-24T06:30:56.095Z,98728.84
2023-04-24T06:33:25.767Z,98738.16
2023-04-24T06:35:54.588Z,98734.69
2023-04-24T06:38:23.384Z,98729.56
2023-04-24T06:40:52.425Z,98729.47
2023-04-24T06:43:21.631Z,98725.47
2023-04-24T06:45:51.524Z,98734.94
2023-04-24T06:48:19.436Z,98736.06
2023-04-24T06:50:48.132Z,98727.25
2023-04-24T06:53:17.672Z,98737.16
2023-04-24T06:55:47.362Z,98741.44
2023-04-24T06:58:17.224Z,98745.09
2023-04-24T07:00:46.922Z,98732.97
2023-04-24T07:03:17.221Z,98732.63
2023-04-24T07:05:47.528Z,98728.34
2023-04-24T07:08:18.784Z,98726.19
2023-04-24T07:10:48.318Z,98727.88
2023-04-24T07:13:18.399Z,98718.06
2023-04-24T07:15:50.254Z,98718.03
2023-04-24T07:18:20.135Z,98725.22
2023-04-24T07:20:51.341Z,98723.66
2023-04-24T07:23:21.037Z,98730.44
2023-04-24T07:25:49.804Z,98736.69
2023-04-24T07:28:19.523Z,98733.25
2023-04-24T07:30:48.248Z,98742.50
2023-04-24T07:33:17.424Z,98741.38
2023-04-24T07:35:48.963Z,98744.13
2023-04-24T07:38:17.835Z,98740.03
2023-04-24T07:40:49.887Z,98743.44
2023-04-24T07:43:19.249Z,98747.81
2023-04-24T07:45:48.076Z,98754.72
2023-04-24T07:48:17.605Z,98746.91
2023-04-24T07:50:46.877Z,98748.09
2023-04-24T07:53:16.473Z,98741.41
2023-04-24T07:55:45.313Z,98739.22
2023-04-24T07:58:14.824Z,98745.19
2023-04-24T08:00:43.544Z,98738.94
2023-04-24T08:03:13.841Z,98735.69
2023-04-24T08:05:44.168Z,98731.44
2023-04-24T08:08:13.848Z,98725.88
2023-04-24T08:10:42.603Z,98730.41
2023-04-24T08:13:12.883Z,98729.84
2023-04-24T08:15:41.661Z,98734.44
2023-04-24T08:18:13.211Z,98736.22
2023-04-24T08:20:41.959Z,98737.13
2023-04-24T08:23:11.489Z,98738.13
2023-04-24T08:25:41.196Z,98740.00
2023-04-24T08:28:12.048Z,98745.53
2023-04-24T08:30:41.614Z,98736.31
2023-04-24T08:33:11.142Z,98734.31
2023-04-24T08:35:41.151Z,98740.75
2023-04-24T08:38:09.853Z,98742.00
2023-04-24T08:40:40.705Z,98745.56
2023-04-24T08:43:10.254Z,98744.88
2023-04-24T08:45:39.740Z,98739.19
2023-04-24T08:48:19.715Z,98736.19
2023-04-24T08:50:53.017Z,98744.31
2023-04-24T08:53:21.782Z,98750.13
2023-04-24T08:55:52.906Z,98744.84
2023-04-24T08:58:21.635Z,98741.47
2023-04-24T09:00:51.397Z,98742.06
2023-04-24T09:03:21.605Z,98735.19
2023-04-24T09:05:52.172Z,98729.53
2023-04-24T09:08:21.887Z,98728.72
2023-04-24T09:10:51.375Z,98733.28
2023-04-24T09:13:22.280Z,98732.88
2023-04-24T09:15:51.353Z,98728.34
2023-04-24T09:18:21.705Z,98735.66
2023-04-24T09:21:11.484Z,98728.63
2023-04-24T09:23:40.771Z,98725.63
2023-04-24T09:26:12.168Z,98723.94
2023-04-24T09:28:42.418Z,98726.00
2023-04-24T09:31:17.689Z,98721.91
2023-04-24T09:34:06.431Z,98718.81
2023-04-24T09:36:45.493Z,98712.38
2023-04-24T09:39:17.774Z,98724.66
2023-04-24T09:42:02.169Z,98710.56
2023-04-24T09:44:31.016Z,98706.50
2023-04-24T09:47:01.900Z,98713.53
2023-04-24T09:49:37.990Z,98715.56
2023-04-24T09:52:13.433Z,98716.78
2023-04-24T09:54:42.209Z,98710.25
2023-04-24T09:57:10.973Z,98706.59
2023-04-24T09:59:47.166Z,98709.56
2023-04-24T10:02:22.079Z,98718.88
2023-04-24T10:05:01.023Z,98704.09
2023-04-24T10:07:30.253Z,98713.56
2023-04-24T10:09:59.423Z,98710.13
2023-04-24T10:12:30.187Z,98702.75
2023-04-24T10:15:00.214Z,98706.41
2023-04-24T10:17:30.796Z,98703.66
2023-04-24T10:20:03.102Z,98704.84
2023-04-24T10:22:31.990Z,98702.13
2023-04-24T10:25:01.930Z,98700.16
2023-04-24T10:27:33.500Z,98689.97
2023-04-24T10:30:04.204Z,98699.47
2023-04-24T10:32:32.889Z,98696.06
2023-04-24T10:35:01.659Z,98695.97
2023-04-24T10:37:39.522Z,98690.91
2023-04-24T10:40:11.111Z,98705.41
2023-04-24T10:42:43.939Z,98689.72
2023-04-24T10:45:24.543Z,98689.50
2023-04-24T10:48:05.943Z,98683.56
2023-04-24T10:50:53.823Z,98679.66
2023-04-24T10:53:28.321Z,98683.34
2023-04-24T10:56:10.703Z,98683.75
2023-04-24T10:58:51.519Z,98673.53
2023-04-24T11:01:32.102Z,98667.78
2023-04-24T11:04:04.688Z,98667.94
2023-04-24T11:06:38.988Z,98671.81
2023-04-24T11:09:14.387Z,98669.31
2023-04-24T11:11:48.228Z,98667.22
2023-04-24T11:14:17.886Z,98674.63
2023-04-24T11:16:54.729Z,98670.69
2023-04-24T11:19:29.782Z,98670.97
2023-04-24T11:22:16.115Z,98666.72
2023-04-24T11:24:52.405Z,98657.06
2023-04-24T11:27:23.696Z,98658.84
2023-04-24T11:29:58.799Z,98661.31
2023-04-24T11:32:42.661Z,98658.34
2023-04-24T11:35:20.261Z,98650.38
2023-04-24T11:40:26.963Z,98654.28
2023-04-24T11:43:00.633Z,98653.09
2023-04-24T11:45:32.868Z,98650.06
2023-04-24T11:48:01.893Z,98653.13
2023-04-24T11:50:30.818Z,98649.09
2023-04-24T11:53:01.552Z,98650.47
2023-04-24T11:55:31.432Z,98645.50
2023-04-24T11:58:02.795Z,98636.16
2023-04-24T12:00:35.541Z,98640.13
2023-04-24T12:03:11.149Z,98637.75
2023-04-24T12:05:42.100Z,98624.53
2023-04-24T12:08:10.989Z,98623.63
2023-04-24T12:10:39.689Z,98627.13
2023-04-24T12:13:12.796Z,98613.34
2023-04-24T12:15:42.787Z,98613.13
2023-04-24T12:18:15.041Z,98615.94
2023-04-24T12:20:42.977Z,98614.44
2023-04-24T12:23:11.618Z,98602.88
2023-04-24T12:25:42.184Z,98598.44
2023-04-24T12:28:14.728Z,98594.03
2023-04-24T12:30:52.602Z,98594.72
2023-04-24T12:33:22.447Z,98580.25
2023-04-24T12:35:55.146Z,98583.53
2023-04-24T12:38:27.443Z,98579.03
2023-04-24T12:41:12.777Z,98573.97
2023-04-24T12:43:54.293Z,98568.69
2023-04-24T12:46:24.005Z,98569.91
2023-04-24T12:48:53.716Z,98573.34
2023-04-24T12:51:22.251Z,98569.09
2023-04-24T12:53:52.583Z,98560.06
2023-04-24T12:56:21.881Z,98562.47
2023-04-24T12:58:53.181Z,98567.25
2023-04-24T13:01:22.858Z,98566.91
2023-04-24T13:03:52.526Z,98557.56
2023-04-24T13:06:22.466Z,98564.53
2023-04-24T13:08:52.688Z,98563.09
2023-04-24T13:11:23.199Z,98564.81
2023-04-24T13:13:55.310Z,98563.50
2023-04-24T13:16:24.956Z,98554.16
2023-04-24T13:18:54.521Z,98554.84
2023-04-24T13:21:24.108Z,98553.25
2023-04-24T13:23:53.644Z,98555.47
2023-04-24T13:26:23.437Z,98554.63
2023-04-24T13:28:51.207Z,98548.50
2023-04-24T13:31:19.060Z,98543.41
2023-04-24T13:33:47.936Z,98546.56
2023-04-24T13:36:15.768Z,98539.25
2023-04-24T13:38:43.492Z,98537.88
2023-04-24T13:41:13.034Z,98540.22
2023-04-24T13:43:44.795Z,98536.13
2023-04-24T13:46:14.660Z,98538.09
2023-04-24T13:48:44.346Z,98534.97
2023-04-24T13:51:13.984Z,98541.13
2023-04-24T13:53:45.259Z,98529.16
2023-04-24T13:56:13.926Z,98535.78
2023-04-24T13:58:41.768Z,98542.66
2023-04-24T14:01:09.554Z,98542.06
2023-04-24T14:03:39.948Z,98540.47
2023-04-24T14:06:08.107Z,98533.84
2023-04-24T14:08:35.956Z,98550.69
2023-04-24T14:11:07.360Z,98547.09
2023-04-24T14:13:39.055Z,98545.94
2023-04-24T14:16:08.223Z,98538.41
2023-04-24T14:18:38.008Z,98545.94
2023-04-24T14:21:06.701Z,98535.84
2023-04-24T14:23:36.306Z,98530.75
2023-04-24T14:26:04.502Z,98538.63
2023-04-24T14:28:32.274Z,98541.75
2023-04-24T14:31:00.099Z,98538.78
2023-04-24T14:33:28.694Z,98540.25
2023-04-24T14:35:59.011Z,98548.28
2023-04-24T14:38:26.822Z,98544.06
2023-04-24T14:43:26.046Z,98543.78
2023-04-24T14:45:53.919Z,98549.81
2023-04-24T14:48:22.768Z,98549.97
2023-04-24T14:50:50.798Z,98548.66
2023-04-24T14:53:20.130Z,98551.41
2023-04-24T14:55:48.801Z,98549.66
2023-04-24T14:58:17.440Z,98545.53
2023-04-24T15:00:46.121Z,98551.81
2023-04-24T15:03:14.902Z,98542.91
2023-04-24T15:05:43.875Z,98546.44
2023-04-24T15:08:12.597Z,98550.53
2023-04-24T15:10:41.483Z,98541.19
2023-04-24T15:13:10.211Z,98549.28
2023-04-24T15:15:38.985Z,98545.75
2023-04-24T15:18:09.624Z,98541.44
2023-04-24T15:20:40.273Z,98543.59
2023-04-24T15:23:12.188Z,98537.59
2023-04-24T15:25:40.439Z,98540.28
2023-04-24T15:28:09.565Z,98533.41
2023-04-24T15:30:38.218Z,98536.34
2023-04-24T15:33:07.830Z,98532.81
2023-04-24T15:35:36.697Z,98530.75
2023-04-24T15:38:05.826Z,98524.28
2023-04-24T15:40:36.057Z,98519.03
2023-04-24T15:43:04.840Z,98520.22
2023-04-24T15:45:35.021Z,98522.31
2023-04-24T15:48:04.121Z,98523.44
2023-04-24T15:50:33.411Z,98529.97
2023-04-24T15:53:02.159Z,98530.84
2023-04-24T15:55:31.045Z,98522.63
2023-04-24T15:57:59.971Z,98520.63
2023-04-24T16:00:34.387Z,98514.91
2023-04-24T16:03:04.690Z,98517.44
2023-04-24T16:05:35.043Z,98522.44
2023-04-24T16:08:03.911Z,98522.03
2023-04-24T16:10:33.057Z,98524.28
2023-04-24T16:13:03.651Z,98521.59
2023-04-24T16:15:34.442Z,98518.50
2023-04-24T16:18:04.025Z,98524.88
2023-04-24T16:20:32.735Z,98524.28
2023-04-24T16:23:01.450Z,98519.50
2023-04-24T16:25:30.664Z,98519.22
2023-04-24T16:27:59.570Z,98512.28
2023-04-24T16:30:29.167Z,98513.28
2023-04-24T16:32:57.899Z,98513.13
2023-04-24T16:35:26.592Z,98513.13
2023-04-24T16:37:55.302Z,98507.63
2023-04-24T16:40:24.065Z,98508.75
2023-04-24T16:42:55.018Z,98515.56
2023-04-24T16:45:23.720Z,98509.63
2023-04-24T16:47:52.401Z,98519.25
2023-04-24T16:50:22.153Z,98525.66
2023-04-24T16:52:51.162Z,98518.72
2023-04-24T16:55:20.135Z,98525.66
2023-04-24T16:57:49.649Z,98513.28
2023-04-24T17:00:18.796Z,98516.97
2023-04-24T17:02:49.007Z,98523.47
2023-04-24T17:05:20.601Z,98518.66
2023-04-24T17:07:50.425Z,98517.28
2023-04-24T17:10:19.932Z,98524.38
2023-04-24T17:12:48.631Z,98523.34
2023-04-24T17:15:17.518Z,98522.66
2023-04-24T17:17:46.446Z,98519.69
2023-04-24T17:20:22.726Z,98531.75
2023-04-24T17:22:52.572Z,98526.66
2023-04-24T17:25:22.154Z,98525.81
2023-04-24T17:27:50.985Z,98521.66
2023-04-24T17:30:20.648Z,98522.94
2023-04-24T17:32:50.162Z,98526.94
2023-04-24T17:35:22.134Z,98524.06
2023-04-24T17:37:51.476Z,98535.81
2023-04-24T17:40:21.032Z,98531.72
2023-04-24T17:42:49.766Z,98534.72
2023-04-24T17:45:19.362Z,98533.59
2023-04-24T17:47:49.273Z,98537.31
2023-04-24T17:50:19.310Z,98544.81
2023-04-24T17:52:48.969Z,98537.72
2023-04-24T17:55:18.676Z,98544.81
2023-04-24T17:57:47.459Z,98547.69
2023-04-24T18:00:17.164Z,98546.97
2023-04-24T18:02:46.976Z,98549.38
2023-04-24T18:05:16.811Z,98550.25
2023-04-24T18:07:47.541Z,98551.34
2023-04-24T18:10:16.525Z,98542.31
2023-04-24T18:12:46.996Z,98544.84
2023-04-24T18:15:16.413Z,98547.97
2023-04-24T18:17:46.604Z,98550.22
2023-04-24T18:20:17.740Z,98558.41
2023-04-24T18:22:47.229Z,98554.22
2023-04-24T18:25:16.490Z,98558.69
2023-04-24T18:27:45.209Z,98553.56
2023-04-24T18:30:15.035Z,98553.25
2023-04-24T18:32:43.321Z,98559.19
2023-04-24T18:35:12.027Z,98560.06
2023-04-24T18:37:40.780Z,98567.88
2023-04-24T18:40:11.459Z,98563.75
2023-04-24T18:42:40.437Z,98565.59
2023-04-24T18:45:13.836Z,98568.84
2023-04-24T18:47:44.402Z,98565.59
2023-04-24T18:50:14.915Z,98568.00
2023-04-24T18:52:43.495Z,98571.94
2023-04-24T18:55:12.150Z,98581.03
2023-04-24T18:57:40.959Z,98576.72
2023-04-24T19:00:09.773Z,98574.47
2023-04-24T19:02:37.823Z,98575.75
2023-04-24T19:05:06.272Z,98585.56
2023-04-24T19:07:35.132Z,98583.72
2023-04-24T19:10:04.806Z,98584.97
2023-04-24T19:12:33.549Z,98578.44
2023-04-24T19:15:02.744Z,98583.81
2023-04-24T19:17:32.090Z,98585.63
2023-04-24T19:20:01.092Z,98585.16
2023-04-24T19:22:30.491Z,98585.13
2023-04-24T19:24:59.492Z,98587.44
2023-04-24T19:27:28.199Z,98583.59
2023-04-24T19:29:56.032Z,98589.28
2023-04-24T19:32:24.819Z,98586.41
2023-04-24T19:34:53.591Z,98591.81
2023-04-24T19:37:22.693Z,98588.81
2023-04-24T19:39:50.504Z,98588.94
2023-04-24T19:42:25.569Z,98588.00
2023-04-24T19:45:01.738Z,98590.41
2023-04-24T19:47:30.640Z,98593.22
2023-04-24T19:50:00.375Z,98583.88
2023-04-24T19:52:29.102Z,98589.09
2023-04-24T19:54:58.692Z,98585.56
2023-04-24T19:57:27.537Z,98580.69
2023-04-24T19:59:56.209Z,98582.09
2023-04-24T20:02:25.271Z,98577.44
2023-04-24T20:04:54.934Z,98582.44
2023-04-24T20:07:23.684Z,98575.91
2023-04-24T20:09:53.201Z,98577.88
2023-04-24T20:12:21.975Z,98571.91
2023-04-24T20:14:51.602Z,98578.44
2023-04-24T20:17:20.322Z,98573.56
2023-04-24T20:19:49.897Z,98575.41
2023-04-24T20:22:18.951Z,98566.78
2023-04-24T20:24:48.625Z,98567.22
2023-04-24T20:27:17.780Z,98572.22
2023-04-24T20:29:47.325Z,98574.59
2023-04-24T20:32:16.089Z,98573.44
2023-04-24T20:34:47.460Z,98568.19
2023-04-24T20:37:16.214Z,98567.66
2023-04-24T20:39:44.953Z,98570.16
2023-04-24T20:42:16.866Z,98566.50
2023-04-24T20:44:46.050Z,98569.91
2023-04-24T20:47:14.807Z,98567.47
2023-04-24T20:49:43.607Z,98568.47
2023-04-24T20:52:12.251Z,98568.91
2023-04-24T20:54:42.145Z,98569.03
2023-04-24T20:57:11.157Z,98577.56
2023-04-24T20:59:40.396Z,98569.31
2023-04-24T21:02:09.943Z,98569.00
2023-04-24T21:04:40.027Z,98569.59
2023-04-24T21:07:10.463Z,98568.88
2023-04-24T21:09:39.178Z,98564.44
2023-04-24T21:12:08.257Z,98567.47
2023-04-24T21:14:37.026Z,98569.31
2023-04-24T21:17:06.585Z,98569.53
2023-04-24T21:19:35.480Z,98571.53
2023-04-24T21:22:04.200Z,98569.72
2023-04-24T21:24:34.033Z,98565.59
2023-04-24T21:27:03.567Z,98561.91
2023-04-24T21:29:33.798Z,98567.56
2023-04-24T21:32:03.651Z,98566.94
2023-04-24T21:34:32.459Z,98563.47
2023-04-24T21:37:01.181Z,98562.38
2023-04-24T21:39:29.864Z,98563.41
2023-04-24T21:41:58.791Z,98564.34
2023-04-24T21:44:27.509Z,98562.69
2023-04-24T21:46:56.409Z,98562.81
2023-04-24T21:49:25.114Z,98558.97
2023-04-24T21:51:53.848Z,98555.31
2023-04-24T21:54:22.569Z,98552.75
2023-04-24T21:56:51.789Z,98547.09
2023-04-24T21:59:20.881Z,98540.88
2023-04-24T22:01:49.733Z,98541.28
2023-04-24T22:04:18.709Z,98532.03
2023-04-24T22:06:47.567Z,98538.44
2023-04-24T22:09:16.278Z,98537.16
2023-04-24T22:11:45.005Z,98529.06
2023-04-24T22:14:13.960Z,98528.91
2023-04-24T22:16:43.437Z,98531.22
2023-04-24T22:19:12.324Z,98527.84
2023-04-24T22:21:41.643Z,98526.78
2023-04-24T22:24:10.181Z,98531.44
2023-04-24T22:26:38.072Z,98525.19
2023-04-24T22:29:06.870Z,98529.19
2023-04-24T22:31:36.140Z,98526.94
2023-04-24T22:34:04.891Z,98529.19
2023-04-24T22:36:34.252Z,98521.53
2023-04-24T22:39:03.229Z,98520.53
2023-04-24T22:41:31.978Z,98526.94
2023-04-24T22:44:00.830Z,98520.09
2023-04-24T22:46:31.271Z,98524.19
2023-04-24T22:49:00.059Z,98520.66
2023-04-24T22:51:29.982Z,98519.47
2023-04-24T22:53:58.652Z,98520.53
2023-04-24T22:56:27.410Z,98529.75
2023-04-24T22:58:55.486Z,98525.75
2023-04-24T23:01:27.313Z,98525.81
2023-04-24T23:03:56.249Z,98527.63
2023-04-24T23:06:25.139Z,98524.06
2023-04-24T23:08:52.962Z,98517.50
2023-04-24T23:11:22.245Z,98516.09
2023-04-24T23:13:51.266Z,98511.84
2023-04-24T23:16:20.160Z,98507.63
2023-04-24T23:18:48.994Z,98512.19
2023-04-24T23:21:17.717Z,98511.22
2023-04-24T23:23:46.670Z,98505.91
2023-04-24T23:26:15.778Z,98505.91
2023-04-24T23:28:44.402Z,98505.63
2023-04-24T23:31:13.172Z,98503.84
2023-04-24T23:33:41.846Z,98501.66
2023-04-24T23:36:11.969Z,98504.50
2023-04-24T23:38:49.517Z,98504.03
2023-04-24T23:41:19.821Z,98488.88
2023-04-24T23:43:47.809Z,98488.63
2023-04-24T23:46:16.618Z,98483.94
2023-04-24T23:48:45.339Z,98488.69
2023-04-24T23:51:13.994Z,98489.13
2023-04-24T23:53:42.286Z,98485.47
2023-04-24T23:56:11.127Z,98480.34
2023-04-24T23:58:38.973Z,98483.31
